sensor_id;sensor_type;location;lat;lon;timestamp;P1;durP1;ratioP1;P2;durP2;ratioP2
20890;SDS011;10605;52.968;8.844;2023-08-07T00:00:36;8.07;;;6.47;;
20890;SDS011;10605;52.968;8.844;2023-08-07T00:03:02;9.80;;;6.47;;
20890;SDS011;10605;52.968;8.844;2023-08-07T00:05:28;10.35;;;6.43;;
20890;SDS011;10605;52.968;8.844;2023-08-07T00:07:54;7.20;;;5.95;;
20890;SDS011;10605;52.968;8.844;2023-08-07T00:10:19;9.63;;;6.25;;
20890;SDS011;10605;52.968;8.844;2023-08-07T00:12:45;7.22;;;5.53;;
20890;SDS011;10605;52.968;8.844;2023-08-07T00:15:11;8.82;;;6.10;;
20890;SDS011;10605;52.968;8.844;2023-08-07T00:17:37;11.60;;;5.93;;
20890;SDS011;10605;52.968;8.844;2023-08-07T00:20:03;9.13;;;5.75;;
20890;SDS011;10605;52.968;8.844;2023-08-07T00:22:29;7.65;;;6.22;;
20890;SDS011;10605;52.968;8.844;2023-08-07T00:24:55;16.27;;;5.95;;
20890;SDS011;10605;52.968;8.844;2023-08-07T00:27:20;9.68;;;6.10;;
20890;SDS011;10605;52.968;8.844;2023-08-07T00:29:46;9.90;;;5.53;;
20890;SDS011;10605;52.968;8.844;2023-08-07T00:32:11;8.88;;;5.47;;
20890;SDS011;10605;52.968;8.844;2023-08-07T00:34:37;7.32;;;5.70;;
20890;SDS011;10605;52.968;8.844;2023-08-07T00:37:03;8.73;;;5.15;;
20890;SDS011;10605;52.968;8.844;2023-08-07T00:39:28;8.18;;;5.82;;
20890;SDS011;10605;52.968;8.844;2023-08-07T00:41:54;7.43;;;5.60;;
20890;SDS011;10605;52.968;8.844;2023-08-07T00:44:20;6.22;;;4.85;;
20890;SDS011;10605;52.968;8.844;2023-08-07T00:46:45;10.52;;;5.35;;
20890;SDS011;10605;52.968;8.844;2023-08-07T00:49:12;8.30;;;5.72;;
20890;SDS011;10605;52.968;8.844;2023-08-07T00:51:38;10.40;;;5.38;;
20890;SDS011;10605;52.968;8.844;2023-08-07T00:54:05;8.10;;;6.00;;
20890;SDS011;10605;52.968;8.844;2023-08-07T00:56:34;11.98;;;5.88;;
20890;SDS011;10605;52.968;8.844;2023-08-07T00:59:00;6.20;;;5.80;;
20890;SDS011;10605;52.968;8.844;2023-08-07T01:01:26;7.78;;;6.43;;
20890;SDS011;10605;52.968;8.844;2023-08-07T01:03:52;7.88;;;6.13;;
20890;SDS011;10605;52.968;8.844;2023-08-07T01:06:18;14.40;;;6.45;;
20890;SDS011;10605;52.968;8.844;2023-08-07T01:08:44;7.72;;;6.93;;
20890;SDS011;10605;52.968;8.844;2023-08-07T01:16:40;10.82;;;7.22;;
20890;SDS011;10605;52.968;8.844;2023-08-07T01:19:26;9.55;;;7.38;;
20890;SDS011;10605;52.968;8.844;2023-08-07T01:22:06;11.38;;;7.75;;
20890;SDS011;10605;52.968;8.844;2023-08-07T01:24:32;10.15;;;8.73;;
20890;SDS011;10605;52.968;8.844;2023-08-07T01:27:00;11.93;;;8.82;;
20890;SDS011;10605;52.968;8.844;2023-08-07T01:29:44;11.52;;;9.05;;
20890;SDS011;10605;52.968;8.844;2023-08-07T01:32:24;11.27;;;9.70;;
20890;SDS011;10605;52.968;8.844;2023-08-07T01:35:12;12.25;;;9.85;;
20890;SDS011;10605;52.968;8.844;2023-08-07T01:37:41;13.38;;;9.82;;
20890;SDS011;10605;52.968;8.844;2023-08-07T01:40:08;14.85;;;10.25;;
20890;SDS011;10605;52.968;8.844;2023-08-07T01:42:36;18.75;;;9.80;;
20890;SDS011;10605;52.968;8.844;2023-08-07T01:45:03;10.98;;;9.88;;
20890;SDS011;10605;52.968;8.844;2023-08-07T01:47:30;11.70;;;10.48;;
20890;SDS011;10605;52.968;8.844;2023-08-07T01:49:55;13.15;;;10.35;;
20890;SDS011;10605;52.968;8.844;2023-08-07T01:52:21;18.85;;;10.20;;
20890;SDS011;10605;52.968;8.844;2023-08-07T01:54:47;19.10;;;11.10;;
20890;SDS011;10605;52.968;8.844;2023-08-07T01:57:13;15.95;;;11.48;;
20890;SDS011;10605;52.968;8.844;2023-08-07T01:59:39;16.63;;;11.32;;
20890;SDS011;10605;52.968;8.844;2023-08-07T02:02:04;13.43;;;11.50;;
20890;SDS011;10605;52.968;8.844;2023-08-07T02:04:30;11.40;;;10.32;;
20890;SDS011;10605;52.968;8.844;2023-08-07T02:06:56;15.80;;;10.65;;
20890;SDS011;10605;52.968;8.844;2023-08-07T02:09:22;16.52;;;9.70;;
20890;SDS011;10605;52.968;8.844;2023-08-07T02:11:47;19.45;;;11.70;;
20890;SDS011;10605;52.968;8.844;2023-08-07T02:14:13;14.13;;;11.32;;
20890;SDS011;10605;52.968;8.844;2023-08-07T02:16:39;13.05;;;11.43;;
20890;SDS011;10605;52.968;8.844;2023-08-07T02:19:04;16.05;;;11.05;;
20890;SDS011;10605;52.968;8.844;2023-08-07T02:21:30;19.77;;;12.50;;
20890;SDS011;10605;52.968;8.844;2023-08-07T02:23:56;20.42;;;11.07;;
20890;SDS011;10605;52.968;8.844;2023-08-07T02:26:22;15.40;;;11.95;;
20890;SDS011;10605;52.968;8.844;2023-08-07T02:28:47;14.73;;;11.50;;
20890;SDS011;10605;52.968;8.844;2023-08-07T02:31:13;13.90;;;11.52;;
20890;SDS011;10605;52.968;8.844;2023-08-07T02:33:38;19.08;;;10.82;;
20890;SDS011;10605;52.968;8.844;2023-08-07T02:36:06;13.82;;;11.80;;
20890;SDS011;10605;52.968;8.844;2023-08-07T02:38:32;14.20;;;11.82;;
20890;SDS011;10605;52.968;8.844;2023-08-07T02:40:57;14.50;;;11.73;;
20890;SDS011;10605;52.968;8.844;2023-08-07T02:43:23;14.32;;;12.73;;
20890;SDS011;10605;52.968;8.844;2023-08-07T02:45:49;15.18;;;12.18;;
20890;SDS011;10605;52.968;8.844;2023-08-07T02:48:14;20.48;;;12.95;;
20890;SDS011;10605;52.968;8.844;2023-08-07T02:50:40;23.83;;;13.05;;
20890;SDS011;10605;52.968;8.844;2023-08-07T02:53:05;19.75;;;13.20;;
20890;SDS011;10605;52.968;8.844;2023-08-07T02:55:31;15.13;;;12.65;;
20890;SDS011;10605;52.968;8.844;2023-08-07T02:57:57;15.40;;;12.98;;
20890;SDS011;10605;52.968;8.844;2023-08-07T03:00:23;21.02;;;12.45;;
20890;SDS011;10605;52.968;8.844;2023-08-07T03:02:48;15.48;;;12.60;;
20890;SDS011;10605;52.968;8.844;2023-08-07T03:05:14;14.98;;;12.80;;
20890;SDS011;10605;52.968;8.844;2023-08-07T03:07:40;16.25;;;13.60;;
20890;SDS011;10605;52.968;8.844;2023-08-07T03:10:06;22.35;;;13.50;;
20890;SDS011;10605;52.968;8.844;2023-08-07T03:12:32;17.88;;;13.73;;
20890;SDS011;10605;52.968;8.844;2023-08-07T03:14:58;20.73;;;13.95;;
20890;SDS011;10605;52.968;8.844;2023-08-07T03:17:23;23.88;;;13.85;;
20890;SDS011;10605;52.968;8.844;2023-08-07T03:19:49;20.63;;;14.43;;
20890;SDS011;10605;52.968;8.844;2023-08-07T03:22:14;17.25;;;14.20;;
20890;SDS011;10605;52.968;8.844;2023-08-07T03:24:40;18.88;;;12.80;;
20890;SDS011;10605;52.968;8.844;2023-08-07T03:27:06;17.95;;;13.60;;
20890;SDS011;10605;52.968;8.844;2023-08-07T03:29:31;14.30;;;10.98;;
20890;SDS011;10605;52.968;8.844;2023-08-07T03:31:57;16.50;;;11.77;;
20890;SDS011;10605;52.968;8.844;2023-08-07T03:34:22;12.90;;;11.45;;
20890;SDS011;10605;52.968;8.844;2023-08-07T03:36:48;14.63;;;11.73;;
20890;SDS011;10605;52.968;8.844;2023-08-07T03:39:14;17.80;;;11.95;;
20890;SDS011;10605;52.968;8.844;2023-08-07T03:41:39;15.85;;;11.52;;
20890;SDS011;10605;52.968;8.844;2023-08-07T03:44:05;12.40;;;11.05;;
20890;SDS011;10605;52.968;8.844;2023-08-07T03:46:31;17.13;;;10.77;;
20890;SDS011;10605;52.968;8.844;2023-08-07T03:48:57;17.42;;;11.25;;
20890;SDS011;10605;52.968;8.844;2023-08-07T03:51:23;16.88;;;10.82;;
20890;SDS011;10605;52.968;8.844;2023-08-07T03:53:49;13.00;;;11.07;;
20890;SDS011;10605;52.968;8.844;2023-08-07T03:56:14;20.20;;;11.43;;
20890;SDS011;10605;52.968;8.844;2023-08-07T03:58:40;11.23;;;10.13;;
20890;SDS011;10605;52.968;8.844;2023-08-07T04:01:06;16.58;;;9.75;;
20890;SDS011;10605;52.968;8.844;2023-08-07T04:03:32;10.07;;;8.98;;
20890;SDS011;10605;52.968;8.844;2023-08-07T04:05:57;9.73;;;8.13;;
20890;SDS011;10605;52.968;8.844;2023-08-07T04:08:25;13.82;;;8.38;;
20890;SDS011;10605;52.968;8.844;2023-08-07T04:10:57;13.60;;;8.45;;
20890;SDS011;10605;52.968;8.844;2023-08-07T04:13:27;10.35;;;7.03;;
20890;SDS011;10605;52.968;8.844;2023-08-07T04:15:53;8.80;;;6.78;;
20890;SDS011;10605;52.968;8.844;2023-08-07T04:18:19;7.68;;;6.80;;
20890;SDS011;10605;52.968;8.844;2023-08-07T04:20:49;10.77;;;7.72;;
20890;SDS011;10605;52.968;8.844;2023-08-07T04:23:18;12.50;;;7.10;;
20890;SDS011;10605;52.968;8.844;2023-08-07T04:25:44;12.73;;;7.43;;
20890;SDS011;10605;52.968;8.844;2023-08-07T04:28:11;7.57;;;6.72;;
20890;SDS011;10605;52.968;8.844;2023-08-07T04:30:37;9.40;;;6.60;;
20890;SDS011;10605;52.968;8.844;2023-08-07T04:33:03;8.88;;;7.15;;
20890;SDS011;10605;52.968;8.844;2023-08-07T04:35:30;12.23;;;7.05;;
20890;SDS011;10605;52.968;8.844;2023-08-07T04:37:55;8.63;;;6.82;;
20890;SDS011;10605;52.968;8.844;2023-08-07T04:40:21;11.40;;;7.13;;
20890;SDS011;10605;52.968;8.844;2023-08-07T04:42:48;8.85;;;7.35;;
20890;SDS011;10605;52.968;8.844;2023-08-07T04:45:14;12.65;;;6.70;;
20890;SDS011;10605;52.968;8.844;2023-08-07T04:47:40;9.80;;;6.65;;
20890;SDS011;10605;52.968;8.844;2023-08-07T04:50:06;8.75;;;5.95;;
20890;SDS011;10605;52.968;8.844;2023-08-07T04:52:33;10.55;;;6.15;;
20890;SDS011;10605;52.968;8.844;2023-08-07T04:55:01;6.75;;;5.65;;
20890;SDS011;10605;52.968;8.844;2023-08-07T04:57:27;8.13;;;5.65;;
20890;SDS011;10605;52.968;8.844;2023-08-07T04:59:53;8.20;;;5.90;;
20890;SDS011;10605;52.968;8.844;2023-08-07T05:02:19;10.05;;;5.45;;
20890;SDS011;10605;52.968;8.844;2023-08-07T05:04:45;6.03;;;5.40;;
20890;SDS011;10605;52.968;8.844;2023-08-07T05:07:10;6.57;;;5.40;;
20890;SDS011;10605;52.968;8.844;2023-08-07T05:09:37;7.00;;;5.63;;
20890;SDS011;10605;52.968;8.844;2023-08-07T05:12:03;5.90;;;4.35;;
20890;SDS011;10605;52.968;8.844;2023-08-07T05:14:30;6.63;;;4.35;;
20890;SDS011;10605;52.968;8.844;2023-08-07T05:16:55;5.68;;;4.13;;
20890;SDS011;10605;52.968;8.844;2023-08-07T05:19:21;7.45;;;3.38;;
20890;SDS011;10605;52.968;8.844;2023-08-07T05:21:47;6.45;;;3.33;;
20890;SDS011;10605;52.968;8.844;2023-08-07T05:24:16;5.63;;;2.75;;
20890;SDS011;10605;52.968;8.844;2023-08-07T05:26:42;2.78;;;2.58;;
20890;SDS011;10605;52.968;8.844;2023-08-07T05:29:07;5.43;;;2.80;;
20890;SDS011;10605;52.968;8.844;2023-08-07T05:31:33;3.15;;;2.38;;
20890;SDS011;10605;52.968;8.844;2023-08-07T05:33:59;3.90;;;2.53;;
20890;SDS011;10605;52.968;8.844;2023-08-07T05:36:25;5.53;;;2.53;;
20890;SDS011;10605;52.968;8.844;2023-08-07T05:38:50;4.55;;;2.50;;
20890;SDS011;10605;52.968;8.844;2023-08-07T05:41:16;3.17;;;2.00;;
20890;SDS011;10605;52.968;8.844;2023-08-07T05:43:42;2.58;;;1.70;;
20890;SDS011;10605;52.968;8.844;2023-08-07T05:46:07;2.47;;;1.73;;
20890;SDS011;10605;52.968;8.844;2023-08-07T05:48:33;2.08;;;1.85;;
20890;SDS011;10605;52.968;8.844;2023-08-07T05:50:59;2.58;;;2.00;;
20890;SDS011;10605;52.968;8.844;2023-08-07T05:53:25;2.88;;;2.00;;
20890;SDS011;10605;52.968;8.844;2023-08-07T05:55:50;4.45;;;1.95;;
20890;SDS011;10605;52.968;8.844;2023-08-07T05:58:16;1.75;;;1.30;;
20890;SDS011;10605;52.968;8.844;2023-08-07T06:00:42;6.47;;;2.15;;
20890;SDS011;10605;52.968;8.844;2023-08-07T06:03:07;3.58;;;1.70;;
20890;SDS011;10605;52.968;8.844;2023-08-07T06:05:33;5.40;;;1.50;;
20890;SDS011;10605;52.968;8.844;2023-08-07T06:08:00;8.13;;;1.70;;
20890;SDS011;10605;52.968;8.844;2023-08-07T06:10:26;2.42;;;1.85;;
20890;SDS011;10605;52.968;8.844;2023-08-07T06:12:52;2.60;;;1.50;;
20890;SDS011;10605;52.968;8.844;2023-08-07T06:15:18;5.28;;;1.80;;
20890;SDS011;10605;52.968;8.844;2023-08-07T06:17:44;3.55;;;2.00;;
20890;SDS011;10605;52.968;8.844;2023-08-07T06:20:10;7.22;;;1.90;;
20890;SDS011;10605;52.968;8.844;2023-08-07T06:22:37;3.25;;;1.90;;
20890;SDS011;10605;52.968;8.844;2023-08-07T06:25:03;6.07;;;1.90;;
20890;SDS011;10605;52.968;8.844;2023-08-07T06:27:30;7.32;;;2.28;;
20890;SDS011;10605;52.968;8.844;2023-08-07T06:29:56;4.22;;;2.20;;
20890;SDS011;10605;52.968;8.844;2023-08-07T06:32:22;7.10;;;2.30;;
20890;SDS011;10605;52.968;8.844;2023-08-07T06:34:49;5.65;;;2.03;;
20890;SDS011;10605;52.968;8.844;2023-08-07T06:37:15;4.10;;;2.20;;
20890;SDS011;10605;52.968;8.844;2023-08-07T06:39:41;3.97;;;2.40;;
20890;SDS011;10605;52.968;8.844;2023-08-07T06:42:06;4.72;;;2.40;;
20890;SDS011;10605;52.968;8.844;2023-08-07T06:44:32;4.22;;;1.80;;
20890;SDS011;10605;52.968;8.844;2023-08-07T06:46:58;4.72;;;2.03;;
20890;SDS011;10605;52.968;8.844;2023-08-07T06:49:24;3.63;;;1.90;;
20890;SDS011;10605;52.968;8.844;2023-08-07T06:51:49;6.88;;;2.17;;
20890;SDS011;10605;52.968;8.844;2023-08-07T06:54:15;8.98;;;2.72;;
20890;SDS011;10605;52.968;8.844;2023-08-07T06:56:41;7.20;;;1.83;;
20890;SDS011;10605;52.968;8.844;2023-08-07T06:59:07;5.35;;;1.60;;
20890;SDS011;10605;52.968;8.844;2023-08-07T07:01:33;6.68;;;1.50;;
20890;SDS011;10605;52.968;8.844;2023-08-07T07:03:59;7.25;;;1.50;;
20890;SDS011;10605;52.968;8.844;2023-08-07T07:06:24;11.00;;;2.10;;
20890;SDS011;10605;52.968;8.844;2023-08-07T07:08:53;8.32;;;2.20;;
20890;SDS011;10605;52.968;8.844;2023-08-07T07:11:19;2.95;;;1.80;;
20890;SDS011;10605;52.968;8.844;2023-08-07T07:13:47;3.67;;;1.45;;
20890;SDS011;10605;52.968;8.844;2023-08-07T07:16:13;3.92;;;1.50;;
20890;SDS011;10605;52.968;8.844;2023-08-07T07:18:39;6.53;;;2.03;;
20890;SDS011;10605;52.968;8.844;2023-08-07T07:21:04;11.70;;;2.40;;
20890;SDS011;10605;52.968;8.844;2023-08-07T07:23:30;5.55;;;2.05;;
20890;SDS011;10605;52.968;8.844;2023-08-07T07:25:57;8.57;;;2.08;;
20890;SDS011;10605;52.968;8.844;2023-08-07T07:28:23;8.45;;;2.38;;
20890;SDS011;10605;52.968;8.844;2023-08-07T07:30:49;9.63;;;2.60;;
20890;SDS011;10605;52.968;8.844;2023-08-07T07:33:15;8.85;;;2.40;;
20890;SDS011;10605;52.968;8.844;2023-08-07T07:35:41;10.52;;;2.45;;
20890;SDS011;10605;52.968;8.844;2023-08-07T07:38:07;9.82;;;2.28;;
20890;SDS011;10605;52.968;8.844;2023-08-07T07:40:36;6.78;;;2.30;;
20890;SDS011;10605;52.968;8.844;2023-08-07T07:43:02;7.50;;;1.85;;
20890;SDS011;10605;52.968;8.844;2023-08-07T07:45:28;9.40;;;2.70;;
20890;SDS011;10605;52.968;8.844;2023-08-07T07:47:54;7.32;;;1.95;;
20890;SDS011;10605;52.968;8.844;2023-08-07T07:50:20;4.20;;;2.00;;
20890;SDS011;10605;52.968;8.844;2023-08-07T07:52:46;6.18;;;2.22;;
20890;SDS011;10605;52.968;8.844;2023-08-07T07:55:12;7.15;;;2.30;;
20890;SDS011;10605;52.968;8.844;2023-08-07T07:57:38;7.47;;;2.17;;
20890;SDS011;10605;52.968;8.844;2023-08-07T08:00:05;6.03;;;2.10;;
20890;SDS011;10605;52.968;8.844;2023-08-07T08:02:35;7.53;;;2.22;;
20890;SDS011;10605;52.968;8.844;2023-08-07T08:05:02;9.70;;;2.50;;
20890;SDS011;10605;52.968;8.844;2023-08-07T08:07:28;9.30;;;2.78;;
20890;SDS011;10605;52.968;8.844;2023-08-07T08:09:53;9.05;;;2.67;;
20890;SDS011;10605;52.968;8.844;2023-08-07T08:12:21;7.38;;;2.00;;
20890;SDS011;10605;52.968;8.844;2023-08-07T08:14:47;8.52;;;2.72;;
20890;SDS011;10605;52.968;8.844;2023-08-07T08:17:13;9.10;;;2.90;;
20890;SDS011;10605;52.968;8.844;2023-08-07T08:19:38;6.97;;;2.30;;
20890;SDS011;10605;52.968;8.844;2023-08-07T08:22:04;6.22;;;2.80;;
20890;SDS011;10605;52.968;8.844;2023-08-07T08:24:30;13.60;;;2.67;;
20890;SDS011;10605;52.968;8.844;2023-08-07T08:26:56;13.25;;;3.00;;
20890;SDS011;10605;52.968;8.844;2023-08-07T08:29:22;7.85;;;2.60;;
20890;SDS011;10605;52.968;8.844;2023-08-07T08:31:48;13.70;;;3.05;;
20890;SDS011;10605;52.968;8.844;2023-08-07T08:34:14;10.93;;;3.38;;
20890;SDS011;10605;52.968;8.844;2023-08-07T08:36:40;12.13;;;2.75;;
20890;SDS011;10605;52.968;8.844;2023-08-07T08:39:05;12.88;;;3.03;;
20890;SDS011;10605;52.968;8.844;2023-08-07T08:41:31;11.75;;;2.53;;
20890;SDS011;10605;52.968;8.844;2023-08-07T08:43:57;12.88;;;2.50;;
20890;SDS011;10605;52.968;8.844;2023-08-07T08:46:24;12.60;;;2.97;;
20890;SDS011;10605;52.968;8.844;2023-08-07T08:48:56;9.43;;;3.30;;
20890;SDS011;10605;52.968;8.844;2023-08-07T08:51:24;12.93;;;2.30;;
20890;SDS011;10605;52.968;8.844;2023-08-07T08:53:51;10.07;;;3.22;;
20890;SDS011;10605;52.968;8.844;2023-08-07T08:56:18;13.65;;;1.88;;
20890;SDS011;10605;52.968;8.844;2023-08-07T08:58:47;7.88;;;2.40;;
20890;SDS011;10605;52.968;8.844;2023-08-07T09:01:14;11.10;;;2.80;;
20890;SDS011;10605;52.968;8.844;2023-08-07T09:03:42;10.80;;;2.28;;
20890;SDS011;10605;52.968;8.844;2023-08-07T09:06:08;8.60;;;2.67;;
20890;SDS011;10605;52.968;8.844;2023-08-07T09:08:35;9.05;;;2.28;;
20890;SDS011;10605;52.968;8.844;2023-08-07T09:11:02;5.25;;;1.50;;
20890;SDS011;10605;52.968;8.844;2023-08-07T09:13:29;4.18;;;1.88;;
20890;SDS011;10605;52.968;8.844;2023-08-07T09:15:58;7.50;;;1.88;;
20890;SDS011;10605;52.968;8.844;2023-08-07T09:18:26;6.88;;;2.13;;
20890;SDS011;10605;52.968;8.844;2023-08-07T09:20:52;4.20;;;1.48;;
20890;SDS011;10605;52.968;8.844;2023-08-07T09:23:18;9.38;;;1.85;;
20890;SDS011;10605;52.968;8.844;2023-08-07T09:25:45;6.65;;;1.70;;
20890;SDS011;10605;52.968;8.844;2023-08-07T09:28:10;9.07;;;1.88;;
20890;SDS011;10605;52.968;8.844;2023-08-07T09:30:37;4.80;;;1.73;;
20890;SDS011;10605;52.968;8.844;2023-08-07T09:33:03;5.30;;;1.58;;
20890;SDS011;10605;52.968;8.844;2023-08-07T09:35:30;5.65;;;2.55;;
20890;SDS011;10605;52.968;8.844;2023-08-07T09:37:57;9.20;;;2.08;;
20890;SDS011;10605;52.968;8.844;2023-08-07T09:40:23;6.55;;;2.47;;
20890;SDS011;10605;52.968;8.844;2023-08-07T09:42:52;5.40;;;2.33;;
20890;SDS011;10605;52.968;8.844;2023-08-07T09:45:22;11.15;;;2.70;;
20890;SDS011;10605;52.968;8.844;2023-08-07T09:47:58;11.68;;;2.75;;
20890;SDS011;10605;52.968;8.844;2023-08-07T09:50:24;8.70;;;2.55;;
20890;SDS011;10605;52.968;8.844;2023-08-07T09:52:50;10.30;;;3.05;;
20890;SDS011;10605;52.968;8.844;2023-08-07T09:55:16;10.05;;;2.92;;
20890;SDS011;10605;52.968;8.844;2023-08-07T09:57:42;5.93;;;2.15;;
20890;SDS011;10605;52.968;8.844;2023-08-07T10:00:09;7.90;;;2.28;;
20890;SDS011;10605;52.968;8.844;2023-08-07T10:02:41;5.82;;;2.22;;
20890;SDS011;10605;52.968;8.844;2023-08-07T10:05:08;7.22;;;2.65;;
20890;SDS011;10605;52.968;8.844;2023-08-07T10:07:36;7.68;;;1.98;;
20890;SDS011;10605;52.968;8.844;2023-08-07T10:10:03;6.88;;;1.80;;
20890;SDS011;10605;52.968;8.844;2023-08-07T10:12:29;3.67;;;2.08;;
20890;SDS011;10605;52.968;8.844;2023-08-07T10:14:56;4.57;;;2.38;;
20890;SDS011;10605;52.968;8.844;2023-08-07T10:17:22;9.43;;;2.10;;
20890;SDS011;10605;52.968;8.844;2023-08-07T10:19:50;6.18;;;2.47;;
20890;SDS011;10605;52.968;8.844;2023-08-07T10:22:16;7.65;;;2.33;;
20890;SDS011;10605;52.968;8.844;2023-08-07T10:24:47;5.15;;;1.88;;
20890;SDS011;10605;52.968;8.844;2023-08-07T10:27:17;3.33;;;1.65;;
20890;SDS011;10605;52.968;8.844;2023-08-07T10:29:46;4.90;;;1.80;;
20890;SDS011;10605;52.968;8.844;2023-08-07T10:32:13;5.95;;;1.90;;
20890;SDS011;10605;52.968;8.844;2023-08-07T10:34:46;5.75;;;1.85;;
20890;SDS011;10605;52.968;8.844;2023-08-07T10:40:06;4.53;;;1.65;;
20890;SDS011;10605;52.968;8.844;2023-08-07T10:42:51;3.60;;;1.52;;
20890;SDS011;10605;52.968;8.844;2023-08-07T10:45:25;4.80;;;1.90;;
20890;SDS011;10605;52.968;8.844;2023-08-07T10:50:32;5.00;;;1.52;;
20890;SDS011;10605;52.968;8.844;2023-08-07T10:53:19;7.72;;;1.40;;
20890;SDS011;10605;52.968;8.844;2023-08-07T10:55:46;5.90;;;1.10;;
20890;SDS011;10605;52.968;8.844;2023-08-07T10:58:31;2.33;;;1.25;;
20890;SDS011;10605;52.968;8.844;2023-08-07T11:03:58;1.52;;;0.88;;
20890;SDS011;10605;52.968;8.844;2023-08-07T11:06:31;6.05;;;1.23;;
20890;SDS011;10605;52.968;8.844;2023-08-07T11:08:59;3.25;;;1.75;;
20890;SDS011;10605;52.968;8.844;2023-08-07T11:11:28;5.60;;;1.40;;
20890;SDS011;10605;52.968;8.844;2023-08-07T11:14:10;5.38;;;1.42;;
20890;SDS011;10605;52.968;8.844;2023-08-07T11:16:46;2.78;;;1.10;;
20890;SDS011;10605;52.968;8.844;2023-08-07T11:19:13;3.33;;;1.63;;
20890;SDS011;10605;52.968;8.844;2023-08-07T11:21:41;2.05;;;1.33;;
20890;SDS011;10605;52.968;8.844;2023-08-07T11:24:13;3.90;;;1.33;;
20890;SDS011;10605;52.968;8.844;2023-08-07T11:26:44;3.03;;;1.40;;
20890;SDS011;10605;52.968;8.844;2023-08-07T11:29:10;3.63;;;1.83;;
20890;SDS011;10605;52.968;8.844;2023-08-07T11:31:35;7.78;;;1.95;;
20890;SDS011;10605;52.968;8.844;2023-08-07T11:34:01;4.03;;;1.70;;
20890;SDS011;10605;52.968;8.844;2023-08-07T11:36:27;5.22;;;1.70;;
20890;SDS011;10605;52.968;8.844;2023-08-07T11:38:54;7.75;;;1.92;;
20890;SDS011;10605;52.968;8.844;2023-08-07T11:41:50;9.13;;;2.42;;
20890;SDS011;10605;52.968;8.844;2023-08-07T11:44:20;8.15;;;2.17;;
20890;SDS011;10605;52.968;8.844;2023-08-07T11:46:58;5.57;;;1.90;;
20890;SDS011;10605;52.968;8.844;2023-08-07T11:49:25;8.23;;;2.30;;
20890;SDS011;10605;52.968;8.844;2023-08-07T11:51:51;5.30;;;2.13;;
20890;SDS011;10605;52.968;8.844;2023-08-07T11:54:17;8.68;;;2.08;;
20890;SDS011;10605;52.968;8.844;2023-08-07T11:56:45;7.47;;;2.03;;
20890;SDS011;10605;52.968;8.844;2023-08-07T11:59:10;6.05;;;1.92;;
20890;SDS011;10605;52.968;8.844;2023-08-07T12:01:37;9.52;;;2.15;;
20890;SDS011;10605;52.968;8.844;2023-08-07T12:06:30;3.75;;;1.75;;
20890;SDS011;10605;52.968;8.844;2023-08-07T12:08:56;4.38;;;1.92;;
20890;SDS011;10605;52.968;8.844;2023-08-07T12:11:22;6.45;;;2.97;;
20890;SDS011;10605;52.968;8.844;2023-08-07T12:13:48;7.43;;;2.35;;
20890;SDS011;10605;52.968;8.844;2023-08-07T12:16:15;6.20;;;2.30;;
20890;SDS011;10605;52.968;8.844;2023-08-07T12:18:44;14.30;;;2.47;;
20890;SDS011;10605;52.968;8.844;2023-08-07T12:21:12;3.22;;;1.70;;
20890;SDS011;10605;52.968;8.844;2023-08-07T12:23:39;9.05;;;1.90;;
20890;SDS011;10605;52.968;8.844;2023-08-07T12:26:05;6.05;;;1.63;;
20890;SDS011;10605;52.968;8.844;2023-08-07T12:28:32;4.57;;;1.75;;
20890;SDS011;10605;52.968;8.844;2023-08-07T12:31:02;8.75;;;2.10;;
20890;SDS011;10605;52.968;8.844;2023-08-07T12:33:29;3.47;;;1.67;;
20890;SDS011;10605;52.968;8.844;2023-08-07T12:35:55;10.32;;;2.30;;
20890;SDS011;10605;52.968;8.844;2023-08-07T12:38:21;5.43;;;1.52;;
20890;SDS011;10605;52.968;8.844;2023-08-07T12:40:48;5.88;;;2.33;;
20890;SDS011;10605;52.968;8.844;2023-08-07T12:43:16;7.30;;;1.70;;
20890;SDS011;10605;52.968;8.844;2023-08-07T12:45:47;3.92;;;1.77;;
20890;SDS011;10605;52.968;8.844;2023-08-07T12:48:18;3.08;;;1.13;;
20890;SDS011;10605;52.968;8.844;2023-08-07T12:50:47;3.47;;;1.42;;
20890;SDS011;10605;52.968;8.844;2023-08-07T12:53:37;7.75;;;1.90;;
20890;SDS011;10605;52.968;8.844;2023-08-07T12:56:03;9.10;;;1.77;;
20890;SDS011;10605;52.968;8.844;2023-08-07T12:58:30;3.88;;;1.30;;
20890;SDS011;10605;52.968;8.844;2023-08-07T13:00:56;7.22;;;1.63;;
20890;SDS011;10605;52.968;8.844;2023-08-07T13:03:22;5.18;;;1.80;;
20890;SDS011;10605;52.968;8.844;2023-08-07T13:05:48;6.50;;;1.80;;
20890;SDS011;10605;52.968;8.844;2023-08-07T13:08:14;3.25;;;1.58;;
20890;SDS011;10605;52.968;8.844;2023-08-07T13:10:40;4.78;;;1.85;;
20890;SDS011;10605;52.968;8.844;2023-08-07T13:13:07;6.22;;;1.90;;
20890;SDS011;10605;52.968;8.844;2023-08-07T13:15:32;5.45;;;1.83;;
20890;SDS011;10605;52.968;8.844;2023-08-07T13:18:04;7.20;;;1.83;;
20890;SDS011;10605;52.968;8.844;2023-08-07T13:20:32;6.93;;;2.00;;
20890;SDS011;10605;52.968;8.844;2023-08-07T13:23:16;4.47;;;2.45;;
20890;SDS011;10605;52.968;8.844;2023-08-07T13:25:44;8.38;;;1.88;;
20890;SDS011;10605;52.968;8.844;2023-08-07T13:28:18;6.10;;;2.28;;
20890;SDS011;10605;52.968;8.844;2023-08-07T13:30:45;6.38;;;2.10;;
20890;SDS011;10605;52.968;8.844;2023-08-07T13:33:13;5.88;;;2.40;;
20890;SDS011;10605;52.968;8.844;2023-08-07T13:35:48;7.97;;;2.65;;
20890;SDS011;10605;52.968;8.844;2023-08-07T13:38:22;4.90;;;1.90;;
20890;SDS011;10605;52.968;8.844;2023-08-07T13:40:51;5.95;;;2.00;;
20890;SDS011;10605;52.968;8.844;2023-08-07T13:43:19;5.63;;;2.00;;
20890;SDS011;10605;52.968;8.844;2023-08-07T13:45:45;8.65;;;2.35;;
20890;SDS011;10605;52.968;8.844;2023-08-07T13:48:11;6.20;;;2.10;;
20890;SDS011;10605;52.968;8.844;2023-08-07T13:50:39;5.10;;;2.08;;
20890;SDS011;10605;52.968;8.844;2023-08-07T13:53:08;5.85;;;1.90;;
20890;SDS011;10605;52.968;8.844;2023-08-07T13:55:34;9.60;;;2.67;;
20890;SDS011;10605;52.968;8.844;2023-08-07T13:58:00;11.05;;;2.30;;
20890;SDS011;10605;52.968;8.844;2023-08-07T14:00:25;7.38;;;2.10;;
20890;SDS011;10605;52.968;8.844;2023-08-07T14:02:51;8.77;;;2.00;;
20890;SDS011;10605;52.968;8.844;2023-08-07T14:05:17;4.38;;;1.40;;
20890;SDS011;10605;52.968;8.844;2023-08-07T14:07:42;5.93;;;1.70;;
20890;SDS011;10605;52.968;8.844;2023-08-07T14:10:08;2.50;;;1.33;;
20890;SDS011;10605;52.968;8.844;2023-08-07T14:12:34;5.85;;;1.88;;
20890;SDS011;10605;52.968;8.844;2023-08-07T14:14:59;2.50;;;1.40;;
20890;SDS011;10605;52.968;8.844;2023-08-07T14:17:25;6.45;;;1.50;;
20890;SDS011;10605;52.968;8.844;2023-08-07T14:19:50;7.45;;;1.75;;
20890;SDS011;10605;52.968;8.844;2023-08-07T14:22:16;6.45;;;1.85;;
20890;SDS011;10605;52.968;8.844;2023-08-07T14:24:42;7.60;;;2.38;;
20890;SDS011;10605;52.968;8.844;2023-08-07T14:27:07;6.18;;;1.95;;
20890;SDS011;10605;52.968;8.844;2023-08-07T14:29:33;7.18;;;2.00;;
20890;SDS011;10605;52.968;8.844;2023-08-07T14:31:59;8.38;;;1.95;;
20890;SDS011;10605;52.968;8.844;2023-08-07T14:34:25;3.33;;;2.00;;
20890;SDS011;10605;52.968;8.844;2023-08-07T14:36:50;5.25;;;2.20;;
20890;SDS011;10605;52.968;8.844;2023-08-07T14:39:17;4.57;;;2.00;;
20890;SDS011;10605;52.968;8.844;2023-08-07T14:41:42;4.38;;;1.95;;
20890;SDS011;10605;52.968;8.844;2023-08-07T14:44:08;6.30;;;2.05;;
20890;SDS011;10605;52.968;8.844;2023-08-07T14:46:34;10.82;;;2.70;;
20890;SDS011;10605;52.968;8.844;2023-08-07T14:48:59;5.68;;;2.17;;
20890;SDS011;10605;52.968;8.844;2023-08-07T14:51:25;5.57;;;2.10;;
20890;SDS011;10605;52.968;8.844;2023-08-07T14:53:50;6.38;;;1.92;;
20890;SDS011;10605;52.968;8.844;2023-08-07T14:56:16;9.45;;;2.20;;